Time;durP1;ratioP1;P1;durP2;ratioP2;P2;SDS_P1;SDS_P2;PMS_P1;PMS_P2;Temp;Humidity;BMP_temperature;BMP_pressure;BME280_temperature;BME280_humidity;BME280_pressure;Samples;Min_cycle;Max_cycle;Signal;HPM_P1;HPM_P2
2023/03/17 00:00:49;;;;;;;;;;;19.90;30.80;;;;;;8334802;28;20374;-43
2023/03/17 00:04:51;;;;;;;;;;;19.90;30.80;;;;;;8334068;28;19948;-44
2023/03/17 00:08:51;;;;;;;;;;;19.80;30.80;;;;;;8334744;28;19914;-44
2023/03/17 00:12:52;;;;;;;;;;;19.80;30.80;;;;;;8334305;28;20358;-44
2023/03/17 00:16:53;;;;;;;;;;;19.80;30.80;;;;;;8333615;28;19928;-44
2023/03/17 00:20:53;;;;;;;;;;;19.80;30.90;;;;;;8334331;28;19917;-42
2023/03/17 00:24:54;;;;;;;;;;;19.80;30.80;;;;;;8333961;28;19921;-45
2023/03/17 00:28:54;;;;;;;;;;;19.80;30.80;;;;;;8333527;28;20316;-43
2023/03/17 00:32:56;;;;;;;;;;;19.70;30.80;;;;;;8333698;28;19971;-44
2023/03/17 00:36:56;;;;;;;;;;;19.70;30.90;;;;;;8333557;28;20024;-44
2023/03/17 00:40:57;;;;;;;;;;;19.70;30.80;;;;;;8332910;28;19917;-44
2023/03/17 00:44:57;;;;;;;;;;;19.70;31.40;;;;;;8333391;28;20003;-44
2023/03/17 00:48:58;;;;;;;;;;;19.60;30.80;;;;;;8333529;28;19913;-44
2023/03/17 00:52:58;;;;;;;;;;;19.60;30.90;;;;;;8332332;28;19929;-43
2023/03/17 00:56:59;;;;;;;;;;;19.60;30.90;;;;;;8332114;28;19917;-44
2023/03/17 01:00:59;;;;;;;;;;;19.60;30.90;;;;;;8332673;28;19917;-44
2023/03/17 01:05:00;;;;;;;;;;;19.60;30.90;;;;;;8332216;28;19971;-44
2023/03/17 01:09:00;;;;;;;;;;;19.50;30.80;;;;;;8332994;28;19913;-43
2023/03/17 01:13:01;;;;;;;;;;;19.50;30.80;;;;;;8332429;28;19932;-45
2023/03/17 01:17:02;;;;;;;;;;;19.50;31.30;;;;;;8331950;28;19917;-44
2023/03/17 01:21:03;;;;;;;;;;;19.50;30.90;;;;;;8332206;28;19917;-45
2023/03/17 01:25:04;;;;;;;;;;;19.50;30.80;;;;;;8332081;28;19917;-46
2023/03/17 01:29:06;;;;;;;;;;;19.50;30.90;;;;;;8331665;28;20442;-44
2023/03/17 01:33:08;;;;;;;;;;;19.50;30.90;;;;;;8331654;28;19929;-44
2023/03/17 01:37:08;;;;;;;;;;;19.40;30.80;;;;;;8331688;28;19917;-44
2023/03/17 01:41:09;;;;;;;;;;;19.40;30.80;;;;;;8331118;28;20290;-44
2023/03/17 01:45:28;;;;;;;;;;;19.40;30.90;;;;;;8331674;28;19921;-44
2023/03/17 01:49:31;;;;;;;;;;;19.40;31.00;;;;;;8330945;28;20389;-44
2023/03/17 01:53:34;;;;;;;;;;;19.40;30.90;;;;;;8331140;28;20059;-44
2023/03/17 01:57:38;;;;;;;;;;;19.30;30.80;;;;;;8331315;28;19917;-43
2023/03/17 02:01:42;;;;;;;;;;;19.40;30.90;;;;;;8330562;28;19921;-44
2023/03/17 02:05:43;;;;;;;;;;;19.40;30.90;;;;;;8330617;28;19921;-44
2023/03/17 02:09:43;;;;;;;;;;;19.40;30.90;;;;;;8331085;28;19976;-44
2023/03/17 02:13:44;;;;;;;;;;;19.30;30.80;;;;;;8329379;28;19917;-45
2023/03/17 02:17:44;;;;;;;;;;;19.30;30.80;;;;;;8330625;28;19960;-44
2023/03/17 02:21:58;;;;;;;;;;;19.30;30.80;;;;;;8330365;28;19947;-45
2023/03/17 02:25:58;;;;;;;;;;;19.30;30.80;;;;;;8330033;28;19924;-44
2023/03/17 02:29:59;;;;;;;;;;;19.20;30.90;;;;;;8330250;28;20297;-44
2023/03/17 02:33:59;;;;;;;;;;;19.20;30.90;;;;;;8330470;28;20039;-43
2023/03/17 02:38:00;;;;;;;;;;;19.20;30.90;;;;;;8342899;28;19917;-44
2023/03/17 02:42:00;;;;;;;;;;;19.20;30.80;;;;;;8346590;28;19918;-45
2023/03/17 02:46:01;;;;;;;;;;;19.20;30.80;;;;;;8330103;28;20433;-44
2023/03/17 02:50:03;;;;;;;;;;;19.20;30.80;;;;;;8329454;28;20335;-45
2023/03/17 02:54:04;;;;;;;;;;;19.20;30.90;;;;;;8330316;28;19917;-44
2023/03/17 02:58:04;;;;;;;;;;;19.20;30.90;;;;;;8329768;28;19917;-45
2023/03/17 03:02:05;;;;;;;;;;;19.20;30.90;;;;;;8329241;28;19925;-44
2023/03/17 03:06:06;;;;;;;;;;;19.10;30.80;;;;;;8329942;28;19951;-44
2023/03/17 03:10:06;;;;;;;;;;;19.10;30.80;;;;;;8329851;28;20015;-45
2023/03/17 03:14:07;;;;;;;;;;;19.10;30.80;;;;;;8329030;28;20336;-44
2023/03/17 03:18:07;;;;;;;;;;;19.10;30.90;;;;;;8332131;28;19963;-44
2023/03/17 03:22:08;;;;;;;;;;;19.10;30.90;;;;;;8335889;28;19913;-43
2023/03/17 03:26:08;;;;;;;;;;;19.10;30.90;;;;;;8335362;28;19917;-44
2023/03/17 03:30:09;;;;;;;;;;;19.00;30.80;;;;;;8336014;28;19964;-44
2023/03/17 03:34:09;;;;;;;;;;;19.00;30.90;;;;;;8335525;28;19996;-44
2023/03/17 03:38:10;;;;;;;;;;;19.00;30.80;;;;;;8334966;28;19924;-44
2023/03/17 03:42:11;;;;;;;;;;;19.00;30.90;;;;;;8335617;28;19917;-44
2023/03/17 03:46:11;;;;;;;;;;;19.00;30.90;;;;;;8317380;28;19952;-44
2023/03/17 03:50:12;;;;;;;;;;;19.00;30.90;;;;;;8334687;28;19925;-45
2023/03/17 03:54:12;;;;;;;;;;;19.00;30.90;;;;;;8334904;28;19917;-44
2023/03/17 03:58:13;;;;;;;;;;;18.90;30.90;;;;;;8334681;28;19924;-44
2023/03/17 04:02:13;;;;;;;;;;;19.00;30.90;;;;;;8334298;28;19927;-44
2023/03/17 04:06:15;;;;;;;;;;;18.90;30.90;;;;;;8334625;28;19967;-43
2023/03/17 04:10:15;;;;;;;;;;;18.90;30.90;;;;;;8334690;28;19925;-44
2023/03/17 04:14:16;;;;;;;;;;;18.90;30.90;;;;;;8333689;28;19918;-44
2023/03/17 04:18:17;;;;;;;;;;;18.90;30.80;;;;;;8334499;28;20337;-44
2023/03/17 04:22:17;;;;;;;;;;;18.90;30.80;;;;;;8334107;28;19948;-44
2023/03/17 04:26:18;;;;;;;;;;;18.90;30.80;;;;;;8333476;28;19924;-44
2023/03/17 04:30:18;;;;;;;;;;;18.90;30.80;;;;;;8332775;28;19967;-45
2023/03/17 04:34:19;;;;;;;;;;;18.90;30.80;;;;;;8333763;28;19917;-45
2023/03/17 04:38:19;;;;;;;;;;;18.90;30.80;;;;;;8333114;28;20007;-44
2023/03/17 04:42:20;;;;;;;;;;;18.90;30.80;;;;;;8333930;28;19945;-42
2023/03/17 04:46:20;;;;;;;;;;;18.90;30.80;;;;;;8333280;28;20035;-43
2023/03/17 04:50:21;;;;;;;;;;;18.80;30.80;;;;;;8332908;28;19926;-42
2023/03/17 04:54:21;;;;;;;;;;;18.90;30.90;;;;;;8333119;28;20008;-42
2023/03/17 04:58:22;;;;;;;;;;;18.80;30.80;;;;;;8332988;28;19921;-42
2023/03/17 05:02:22;;;;;;;;;;;18.80;30.70;;;;;;8332582;28;19940;-42
2023/03/17 05:06:23;;;;;;;;;;;18.80;30.70;;;;;;8332865;28;20000;-43
2023/03/17 05:10:23;;;;;;;;;;;18.90;30.80;;;;;;8314041;28;19960;-43
2023/03/17 05:14:24;;;;;;;;;;;18.90;30.80;;;;;;8331891;28;19924;-43
2023/03/17 05:18:25;;;;;;;;;;;19.00;30.80;;;;;;8332387;28;19940;-43
2023/03/17 05:22:26;;;;;;;;;;;19.20;31.30;;;;;;8332377;28;20366;-42
2023/03/17 05:26:26;;;;;;;;;;;19.20;30.70;;;;;;8331637;28;20267;-43
2023/03/17 05:30:26;;;;;;;;;;;19.30;30.60;;;;;;8332157;28;20301;-44
2023/03/17 05:34:27;;;;;;;;;;;19.50;30.60;;;;;;8331889;28;20318;-45
2023/03/17 05:38:28;;;;;;;;;;;19.60;30.50;;;;;;8331284;28;19917;-47
2023/03/17 05:42:28;;;;;;;;;;;19.60;30.40;;;;;;8313947;28;20285;-43
2023/03/17 05:46:29;;;;;;;;;;;19.70;30.50;;;;;;8330949;28;19918;-43
2023/03/17 05:50:30;;;;;;;;;;;19.70;30.40;;;;;;8331675;28;19971;-44
2023/03/17 05:54:30;;;;;;;;;;;19.80;30.50;;;;;;8331233;28;19924;-44
2023/03/17 05:58:31;;;;;;;;;;;19.80;30.40;;;;;;8330901;28;19913;-44
2023/03/17 06:02:31;;;;;;;;;;;19.80;30.40;;;;;;8331223;28;19968;-44
2023/03/17 06:06:32;;;;;;;;;;;19.90;30.40;;;;;;8330933;28;19913;-44
2023/03/17 06:10:33;;;;;;;;;;;19.90;30.40;;;;;;8330458;28;19955;-44
2023/03/17 06:14:33;;;;;;;;;;;19.90;30.40;;;;;;8330670;28;20354;-45
2023/03/17 06:18:34;;;;;;;;;;;19.90;30.40;;;;;;8330684;28;20424;-44
2023/03/17 06:22:36;;;;;;;;;;;19.90;30.40;;;;;;8330145;28;20394;-45
2023/03/17 06:26:36;;;;;;;;;;;19.90;30.40;;;;;;8330749;28;19913;-44
2023/03/17 06:30:37;;;;;;;;;;;19.90;30.40;;;;;;8330571;28;20054;-44
2023/03/17 06:34:37;;;;;;;;;;;19.80;30.30;;;;;;8329750;28;19968;-43
2023/03/17 06:38:38;;;;;;;;;;;19.80;30.30;;;;;;8330122;28;20433;-44
2023/03/17 06:42:39;;;;;;;;;;;19.90;30.40;;;;;;8330204;28;19917;-44
2023/03/17 06:46:40;;;;;;;;;;;19.90;30.40;;;;;;8329615;28;20418;-44
2023/03/17 06:50:40;;;;;;;;;;;19.90;30.30;;;;;;8330125;28;19967;-44
2023/03/17 06:54:41;;;;;;;;;;;19.90;30.30;;;;;;8335308;28;20371;-44
2023/03/17 06:58:41;;;;;;;;;;;19.90;30.30;;;;;;8336215;28;19921;-45
2023/03/17 07:02:42;;;;;;;;;;;19.90;30.30;;;;;;8336613;28;19925;-46
2023/03/17 07:06:43;;;;;;;;;;;20.00;30.80;;;;;;8336475;28;20374;-45
2023/03/17 07:10:44;;;;;;;;;;;20.00;30.30;;;;;;8335497;28;19925;-45
2023/03/17 07:14:45;;;;;;;;;;;20.00;30.30;;;;;;8336531;28;19917;-44
2023/03/17 07:18:45;;;;;;;;;;;20.00;30.30;;;;;;8335992;28;19917;-46
2023/03/17 07:22:46;;;;;;;;;;;20.10;30.30;;;;;;8335631;28;19917;-45
2023/03/17 07:26:47;;;;;;;;;;;20.10;30.30;;;;;;8336210;28;19913;-47
2023/03/17 07:30:48;;;;;;;;;;;20.10;30.30;;;;;;8335487;28;19929;-43
2023/03/17 07:34:49;;;;;;;;;;;20.10;30.30;;;;;;8335122;28;19917;-46
2023/03/17 07:38:49;;;;;;;;;;;20.20;30.30;;;;;;8335850;28;20337;-45
2023/03/17 07:42:50;;;;;;;;;;;20.20;30.20;;;;;;8335607;28;19917;-45
2023/03/17 07:46:50;;;;;;;;;;;20.20;30.30;;;;;;8334838;28;19999;-46
2023/03/17 07:50:51;;;;;;;;;;;20.20;30.20;;;;;;8334995;28;20358;-45
2023/03/17 07:54:52;;;;;;;;;;;20.10;30.20;;;;;;8317232;28;19956;-45
2023/03/17 07:58:53;;;;;;;;;;;20.10;30.20;;;;;;8334319;28;20307;-44
2023/03/17 08:02:53;;;;;;;;;;;20.10;30.20;;;;;;8334379;28;20019;-45
2023/03/17 08:06:54;;;;;;;;;;;20.10;30.20;;;;;;8333980;28;20290;-45
2023/03/17 08:11:01;;;;;;;;;;;20.10;30.20;;;;;;8333924;28;20016;-46
2023/03/17 08:15:01;;;;;;;;;;;20.00;30.10;;;;;;8334330;28;19917;-45
2023/03/17 08:19:03;;;;;;;;;;;20.00;30.20;;;;;;8333977;28;20016;-44
2023/03/17 08:23:03;;;;;;;;;;;19.90;30.20;;;;;;8333475;28;19917;-45
2023/03/17 08:27:04;;;;;;;;;;;19.90;30.30;;;;;;8334591;28;19913;-44
2023/03/17 08:31:09;;;;;;;;;;;19.90;30.30;;;;;;8333968;28;20019;-45
2023/03/17 08:35:10;;;;;;;;;;;19.90;30.30;;;;;;8333297;28;19924;-44
2023/03/17 08:39:11;;;;;;;;;;;19.90;30.30;;;;;;8333606;28;19917;-44
2023/03/17 08:43:11;;;;;;;;;;;19.80;30.30;;;;;;8333568;28;19917;-44
2023/03/17 08:47:12;;;;;;;;;;;19.90;30.40;;;;;;8333158;28;19913;-44
2023/03/17 08:51:13;;;;;;;;;;;19.80;30.30;;;;;;8333227;28;19925;-43
2023/03/17 08:55:14;;;;;;;;;;;19.80;30.30;;;;;;8333248;28;19918;-44
2023/03/17 08:59:15;;;;;;;;;;;19.80;30.30;;;;;;8332473;28;20011;-44
2023/03/17 09:03:15;;;;;;;;;;;19.80;30.30;;;;;;8332724;28;19921;-44
2023/03/17 09:07:15;;;;;;;;;;;19.80;30.30;;;;;;8333226;28;19963;-44
2023/03/17 09:11:19;;;;;;;;;;;19.80;30.30;;;;;;8332115;28;20012;-44
2023/03/17 09:15:20;;;;;;;;;;;19.70;30.30;;;;;;8331890;28;19971;-45
2023/03/17 09:19:20;;;;;;;;;;;19.80;30.40;;;;;;8332487;28;19917;-43
2023/03/17 09:23:22;;;;;;;;;;;19.80;30.30;;;;;;8331781;28;19924;-44
2023/03/17 09:27:22;;;;;;;;;;;19.70;30.30;;;;;;8332411;28;20000;-45
2023/03/17 09:31:23;;;;;;;;;;;19.70;30.30;;;;;;8332033;28;19929;-44
2023/03/17 09:35:25;;;;;;;;;;;19.80;30.30;;;;;;8331457;28;20386;-46
2023/03/17 09:39:26;;;;;;;;;;;19.70;30.30;;;;;;8331960;28;19924;-43
2023/03/17 09:43:29;;;;;;;;;;;19.80;30.30;;;;;;8331566;28;20059;-44
2023/03/17 09:47:38;;;;;;;;;;;19.80;30.40;;;;;;8331891;28;20244;-44
2023/03/17 09:51:38;;;;;;;;;;;19.70;30.30;;;;;;8331477;28;19936;-44
2023/03/17 09:55:40;;;;;;;;;;;19.80;30.30;;;;;;8330964;28;19921;-44
2023/03/17 09:59:46;;;;;;;;;;;19.70;30.30;;;;;;8331331;28;20365;-45
2023/03/17 10:03:46;;;;;;;;;;;19.70;30.30;;;;;;8331046;28;19928;-45
2023/03/17 10:07:47;;;;;;;;;;;19.70;30.40;;;;;;8330700;28;20841;-45
2023/03/17 10:11:51;;;;;;;;;;;19.70;30.40;;;;;;8330541;28;19929;-45
2023/03/17 10:15:55;;;;;;;;;;;19.70;30.30;;;;;;8330576;28;19943;-44
2023/03/17 10:19:58;;;;;;;;;;;19.70;30.30;;;;;;8330178;28;20571;-44
2023/03/17 10:24:00;;;;;;;;;;;19.70;30.40;;;;;;8330673;28;19917;-46
2023/03/17 10:28:04;;;;;;;;;;;19.70;30.40;;;;;;8330629;28;19918;-44
2023/03/17 10:32:08;;;;;;;;;;;19.70;30.40;;;;;;8329890;28;19925;-46
2023/03/17 10:36:09;;;;;;;;;;;19.70;30.40;;;;;;8330277;28;20359;-47
2023/03/17 10:40:24;;;;;;;;;;;19.70;30.40;;;;;;8330089;28;19957;-44
2023/03/17 10:44:42;;;;;;;;;;;19.70;30.40;;;;;;8329709;28;19948;-45
2023/03/17 10:48:47;;;;;;;;;;;19.70;30.40;;;;;;8330009;28;19917;-45
2023/03/17 10:52:59;;;;;;;;;;;19.70;30.40;;;;;;8329616;28;19977;-46
2023/03/17 10:57:01;;;;;;;;;;;19.70;30.50;;;;;;8329856;28;20397;-44
2023/03/17 11:01:04;;;;;;;;;;;19.80;30.50;;;;;;8329783;28;19952;-45
2023/03/17 11:05:08;;;;;;;;;;;19.70;30.50;;;;;;8329225;28;19987;-44
2023/03/17 11:09:15;;;;;;;;;;;19.70;30.40;;;;;;8316378;28;19921;-45
2023/03/17 11:13:16;;;;;;;;;;;19.70;30.50;;;;;;8329846;28;20275;-44
2023/03/17 11:17:19;;;;;;;;;;;19.70;30.50;;;;;;8329058;28;19949;-45
2023/03/17 11:21:28;;;;;;;;;;;19.70;30.50;;;;;;8329599;28;19917;-44
2023/03/17 11:25:31;;;;;;;;;;;19.70;30.50;;;;;;8328957;28;20282;-43
2023/03/17 11:29:38;;;;;;;;;;;19.70;30.50;;;;;;8329044;28;19979;-45
2023/03/17 11:33:48;;;;;;;;;;;19.70;30.50;;;;;;8329349;28;20378;-44
2023/03/17 11:37:55;;;;;;;;;;;19.70;30.50;;;;;;8329472;28;19945;-45
2023/03/17 11:42:05;;;;;;;;;;;19.70;30.50;;;;;;8335491;28;19917;-45
2023/03/17 11:46:15;;;;;;;;;;;19.80;30.60;;;;;;8335215;28;19917;-44
2023/03/17 11:50:26;;;;;;;;;;;19.80;30.60;;;;;;8334509;28;19936;-45
2023/03/17 11:54:37;;;;;;;;;;;19.80;30.60;;;;;;8334969;28;19917;-44
2023/03/17 11:58:42;;;;;;;;;;;19.80;30.60;;;;;;8334616;28;19917;-45
2023/03/17 12:02:47;;;;;;;;;;;19.80;30.60;;;;;;8335024;28;20360;-45
2023/03/17 12:06:58;;;;;;;;;;;19.80;30.50;;;;;;8334540;28;19921;-45
2023/03/17 12:11:00;;;;;;;;;;;19.80;30.60;;;;;;8334078;28;20317;-44
2023/03/17 12:15:04;;;;;;;;;;;19.80;30.60;;;;;;8334312;28;19913;-43
2023/03/17 12:19:09;;;;;;;;;;;19.80;30.60;;;;;;8334186;28;19953;-45
2023/03/17 12:23:16;;;;;;;;;;;19.80;30.60;;;;;;8334042;28;20008;-44
2023/03/17 12:27:28;;;;;;;;;;;19.80;30.60;;;;;;8334130;28;20314;-45
2023/03/17 12:31:30;;;;;;;;;;;19.80;30.60;;;;;;8333373;28;19921;-44
2023/03/17 12:35:33;;;;;;;;;;;19.80;30.60;;;;;;8334202;28;19925;-45
2023/03/17 12:39:35;;;;;;;;;;;19.80;30.60;;;;;;8333805;28;19920;-45
2023/03/17 12:43:36;;;;;;;;;;;19.80;30.60;;;;;;8333481;28;19917;-46
2023/03/17 12:47:46;;;;;;;;;;;19.90;30.60;;;;;;8333418;28;19963;-45
2023/03/17 12:51:57;;;;;;;;;;;19.80;30.60;;;;;;8332183;28;19925;-46
2023/03/17 12:56:09;;;;;;;;;;;19.80;30.70;;;;;;8332574;28;19917;-45
2023/03/17 13:00:16;;;;;;;;;;;19.90;30.80;;;;;;8332856;28;19920;-45
2023/03/17 13:04:22;;;;;;;;;;;19.90;30.80;;;;;;8332689;28;19932;-45
2023/03/17 13:08:33;;;;;;;;;;;19.90;30.70;;;;;;8330921;28;20353;-45
2023/03/17 13:12:39;;;;;;;;;;;19.80;30.70;;;;;;8330169;28;19925;-44
2023/03/17 13:16:40;;;;;;;;;;;19.90;30.70;;;;;;8330790;28;19920;-46
2023/03/17 13:20:43;;;;;;;;;;;19.90;30.70;;;;;;8315859;28;19963;-46
2023/03/17 13:24:47;;;;;;;;;;;19.90;30.70;;;;;;8329009;28;22536;-45
2023/03/17 13:28:50;;;;;;;;;;;19.90;30.80;;;;;;8330538;28;20363;-45
2023/03/17 13:33:09;;;;;;;;;;;19.90;30.80;;;;;;8329041;28;19933;-44
2023/03/17 13:37:21;;;;;;;;;;;19.90;30.70;;;;;;8329450;28;19917;-45
2023/03/17 13:41:36;;;;;;;;;;;19.90;30.70;;;;;;8331239;28;20271;-45
2023/03/17 13:45:38;;;;;;;;;;;19.90;30.80;;;;;;8331946;28;19963;-43
2023/03/17 13:49:38;;;;;;;;;;;19.90;30.80;;;;;;8330927;28;19917;-44
2023/03/17 13:53:55;;;;;;;;;;;19.90;30.80;;;;;;8331310;28;20370;-45
2023/03/17 13:58:05;;;;;;;;;;;19.90;30.80;;;;;;8325806;28;19917;-46
2023/03/17 14:02:15;;;;;;;;;;;19.90;30.80;;;;;;8308977;28;19929;-43
2023/03/17 14:06:17;;;;;;;;;;;19.90;31.30;;;;;;8321461;28;20378;-44
2023/03/17 14:10:19;;;;;;;;;;;19.90;30.80;;;;;;8324643;28;20441;-44
2023/03/17 14:14:30;;;;;;;;;;;19.90;30.80;;;;;;8325317;28;20341;-45
2023/03/17 14:18:34;;;;;;;;;;;19.90;30.80;;;;;;8325417;28;19945;-45
2023/03/17 14:22:39;;;;;;;;;;;19.90;30.80;;;;;;8320469;28;19924;-45
2023/03/17 14:26:40;;;;;;;;;;;19.90;30.90;;;;;;8312856;28;19969;-43
2023/03/17 14:30:49;;;;;;;;;;;19.90;30.90;;;;;;8327303;28;19932;-45
2023/03/17 14:34:57;;;;;;;;;;;19.90;30.90;;;;;;8323954;28;19917;-45
2023/03/17 14:38:57;;;;;;;;;;;19.90;30.90;;;;;;8323033;28;19928;-45
2023/03/17 14:42:58;;;;;;;;;;;19.90;30.80;;;;;;8327101;28;19921;-45
2023/03/17 14:47:00;;;;;;;;;;;19.90;30.90;;;;;;8327852;28;20325;-43
2023/03/17 14:51:04;;;;;;;;;;;19.90;30.90;;;;;;8325773;28;19932;-43
2023/03/17 14:55:05;;;;;;;;;;;19.90;30.90;;;;;;8321769;28;20281;-45
2023/03/17 14:59:15;;;;;;;;;;;19.90;30.90;;;;;;8322781;28;19917;-45
2023/03/17 15:03:18;;;;;;;;;;;19.90;30.90;;;;;;8323287;28;20331;-45
2023/03/17 15:07:35;;;;;;;;;;;19.90;30.90;;;;;;8327233;28;19940;-45
2023/03/17 15:11:37;;;;;;;;;;;19.90;31.00;;;;;;8322414;28;19925;-45
2023/03/17 15:15:40;;;;;;;;;;;19.90;31.00;;;;;;8324778;28;19921;-44
2023/03/17 15:19:45;;;;;;;;;;;19.90;30.90;;;;;;8326666;28;19925;-46
2023/03/17 15:23:47;;;;;;;;;;;19.90;30.90;;;;;;8328152;28;20378;-45
2023/03/17 15:27:48;;;;;;;;;;;19.90;30.90;;;;;;8326573;28;19971;-46
2023/03/17 15:31:48;;;;;;;;;;;19.90;30.90;;;;;;8326445;28;20394;-46
2023/03/17 15:35:49;;;;;;;;;;;19.90;30.90;;;;;;8325100;28;19973;-46
2023/03/17 15:39:51;;;;;;;;;;;19.90;30.90;;;;;;8313601;28;20012;-44
2023/03/17 15:43:52;;;;;;;;;;;19.90;30.90;;;;;;8326708;28;19971;-44
2023/03/17 15:47:54;;;;;;;;;;;19.90;31.00;;;;;;8328873;28;19917;-45
2023/03/17 15:51:54;;;;;;;;;;;19.90;31.00;;;;;;8332845;28;19925;-43
2023/03/17 15:55:55;;;;;;;;;;;19.90;31.00;;;;;;8330328;28;19944;-44
2023/03/17 15:59:55;;;;;;;;;;;19.90;31.00;;;;;;8319664;28;20359;-44
2023/03/17 16:03:56;;;;;;;;;;;19.90;31.00;;;;;;8333205;28;19921;-43
2023/03/17 16:07:56;;;;;;;;;;;19.90;31.00;;;;;;8330950;28;20298;-45
2023/03/17 16:11:57;;;;;;;;;;;19.90;31.10;;;;;;8322226;28;19925;-48
2023/03/17 16:15:58;;;;;;;;;;;20.00;31.10;;;;;;8320661;28;19917;-44
2023/03/17 16:19:59;;;;;;;;;;;20.10;31.10;;;;;;8311301;28;19920;-45
2023/03/17 16:23:59;;;;;;;;;;;20.10;31.10;;;;;;8331749;28;19917;-44
2023/03/17 16:28:01;;;;;;;;;;;20.20;31.00;;;;;;8318941;28;19960;-46
2023/03/17 16:32:02;;;;;;;;;;;20.30;31.00;;;;;;8318056;28;20374;-44
2023/03/17 16:36:02;;;;;;;;;;;20.30;30.90;;;;;;8332782;28;19948;-45
2023/03/17 16:40:03;;;;;;;;;;;20.40;30.90;;;;;;8313782;28;19917;-45
2023/03/17 16:44:06;;;;;;;;;;;20.50;30.90;;;;;;8331765;28;19924;-49
2023/03/17 16:48:10;;;;;;;;;;;20.50;30.90;;;;;;8325299;28;20709;-45
2023/03/17 16:52:10;;;;;;;;;;;20.50;30.90;;;;;;8331135;28;20018;-45
2023/03/17 16:56:13;;;;;;;;;;;20.60;30.90;;;;;;8328792;28;20005;-46
2023/03/17 17:00:18;;;;;;;;;;;20.60;30.90;;;;;;8315209;28;19962;-44
2023/03/17 17:04:19;;;;;;;;;;;20.70;30.90;;;;;;8327294;28;19967;-46
2023/03/17 17:08:19;;;;;;;;;;;20.70;30.90;;;;;;8324460;28;19921;-47
2023/03/17 17:12:20;;;;;;;;;;;20.70;30.90;;;;;;8331549;28;20271;-48
2023/03/17 17:16:28;;;;;;;;;;;20.70;30.90;;;;;;8331527;28;19975;-45
2023/03/17 17:20:31;;;;;;;;;;;20.80;30.90;;;;;;8332153;28;19921;-46
2023/03/17 17:24:31;;;;;;;;;;;20.80;30.90;;;;;;8332232;28;19945;-44
2023/03/17 17:28:32;;;;;;;;;;;20.80;30.90;;;;;;8331583;28;19914;-44
2023/03/17 17:32:32;;;;;;;;;;;20.80;30.90;;;;;;8332278;28;19932;-46
2023/03/17 17:36:33;;;;;;;;;;;20.80;30.90;;;;;;8331308;28;19917;-45
2023/03/17 17:40:33;;;;;;;;;;;20.80;31.00;;;;;;8331585;28;20008;-44
2023/03/17 17:44:34;;;;;;;;;;;20.80;31.00;;;;;;8331771;28;19917;-43
2023/03/17 17:48:35;;;;;;;;;;;20.80;31.00;;;;;;8331785;28;19917;-46
2023/03/17 17:52:36;;;;;;;;;;;20.80;31.10;;;;;;8330890;28;20409;-47
2023/03/17 17:56:39;;;;;;;;;;;20.80;31.10;;;;;;8331053;28;19924;-46
2023/03/17 18:00:39;;;;;;;;;;;20.80;31.10;;;;;;8331313;28;19921;-45
2023/03/17 18:04:40;;;;;;;;;;;20.80;31.20;;;;;;8330480;28;20303;-45
2023/03/17 18:08:42;;;;;;;;;;;20.80;31.20;;;;;;8331001;28;19996;-45
2023/03/17 18:12:42;;;;;;;;;;;20.90;31.30;;;;;;8330746;28;19952;-44
2023/03/17 18:16:43;;;;;;;;;;;20.80;31.20;;;;;;8330171;28;19917;-45
2023/03/17 18:20:43;;;;;;;;;;;20.90;31.20;;;;;;8330758;28;19913;-44
2023/03/17 18:24:44;;;;;;;;;;;20.90;31.20;;;;;;8330574;28;19921;-44
2023/03/17 18:28:44;;;;;;;;;;;20.90;31.20;;;;;;8329853;28;19917;-45
2023/03/17 18:32:48;;;;;;;;;;;20.80;31.20;;;;;;8330115;28;19925;-45
2023/03/17 18:36:49;;;;;;;;;;;20.80;31.30;;;;;;8330212;28;20018;-45
2023/03/17 18:40:50;;;;;;;;;;;20.90;31.30;;;;;;8329737;28;19913;-45
2023/03/17 18:44:51;;;;;;;;;;;20.90;31.30;;;;;;8329919;28;20405;-45
2023/03/17 18:48:51;;;;;;;;;;;20.90;31.40;;;;;;8328996;28;19943;-45
2023/03/17 18:52:52;;;;;;;;;;;20.90;31.40;;;;;;8329517;28;19925;-44
2023/03/17 18:56:52;;;;;;;;;;;20.90;31.30;;;;;;8330012;28;19918;-45
2023/03/17 19:00:57;;;;;;;;;;;20.90;31.30;;;;;;8329884;28;19913;-44
2023/03/17 19:04:57;;;;;;;;;;;20.90;31.30;;;;;;8329276;28;20020;-44
2023/03/17 19:08:58;;;;;;;;;;;20.90;31.30;;;;;;8329967;28;19917;-45
2023/03/17 19:12:58;;;;;;;;;;;20.90;31.40;;;;;;8329628;28;19929;-44
2023/03/17 19:16:59;;;;;;;;;;;20.90;31.40;;;;;;8329288;28;20015;-45
2023/03/17 19:21:00;;;;;;;;;;;20.90;31.40;;;;;;8330119;28;20432;-45
2023/03/17 19:25:01;;;;;;;;;;;20.90;31.30;;;;;;8329737;28;20568;-44
2023/03/17 19:29:01;;;;;;;;;;;20.90;31.40;;;;;;8328950;28;19917;-46
2023/03/17 19:33:01;;;;;;;;;;;20.90;31.50;;;;;;8329356;28;19932;-44
2023/03/17 19:37:02;;;;;;;;;;;20.90;31.40;;;;;;8329409;28;19913;-45
2023/03/17 19:41:03;;;;;;;;;;;20.90;31.40;;;;;;8328754;28;19913;-45
2023/03/17 19:45:04;;;;;;;;;;;20.90;31.40;;;;;;8329458;28;20374;-45
2023/03/17 19:49:05;;;;;;;;;;;21.00;31.50;;;;;;8328994;28;19931;-45
2023/03/17 19:53:06;;;;;;;;;;;21.00;31.50;;;;;;8328570;28;20382;-47
2023/03/17 19:57:06;;;;;;;;;;;20.90;31.30;;;;;;8328835;28;19913;-45
2023/03/17 20:01:07;;;;;;;;;;;20.90;31.40;;;;;;8332979;28;19921;-46
2023/03/17 20:05:08;;;;;;;;;;;21.00;31.50;;;;;;8333380;28;20279;-46
2023/03/17 20:09:08;;;;;;;;;;;20.90;31.50;;;;;;8334864;28;19923;-45
2023/03/17 20:13:09;;;;;;;;;;;20.90;31.50;;;;;;8334349;28;19999;-46
2023/03/17 20:17:09;;;;;;;;;;;20.90;31.50;;;;;;8334012;28;20013;-45
2023/03/17 20:21:10;;;;;;;;;;;20.90;31.50;;;;;;8334533;28;19913;-46
2023/03/17 20:25:11;;;;;;;;;;;21.00;31.50;;;;;;8334286;28;20340;-46
2023/03/17 20:29:13;;;;;;;;;;;21.00;31.50;;;;;;8333531;28;19932;-46
2023/03/17 20:33:13;;;;;;;;;;;21.00;31.50;;;;;;8333909;28;19932;-45
2023/03/17 20:37:14;;;;;;;;;;;21.00;31.50;;;;;;8334371;28;19932;-45
2023/03/17 20:41:16;;;;;;;;;;;21.00;31.50;;;;;;8333493;28;19919;-44
2023/03/17 20:45:17;;;;;;;;;;;21.00;31.60;;;;;;8333750;28;19924;-46
2023/03/17 20:49:17;;;;;;;;;;;21.00;31.50;;;;;;8340929;28;19916;-45
2023/03/17 20:53:18;;;;;;;;;;;21.00;31.60;;;;;;8357338;28;19925;-45
2023/03/17 20:57:18;;;;;;;;;;;21.00;31.60;;;;;;8333511;28;19917;-47
2023/03/17 21:01:19;;;;;;;;;;;21.00;31.60;;;;;;8333194;28;19925;-46
2023/03/17 21:05:22;;;;;;;;;;;21.00;31.60;;;;;;8332524;28;19921;-47
2023/03/17 21:09:23;;;;;;;;;;;21.00;31.60;;;;;;8332729;28;19918;-47
2023/03/17 21:13:23;;;;;;;;;;;21.00;31.50;;;;;;8331755;28;20317;-46
2023/03/17 21:17:25;;;;;;;;;;;21.00;31.50;;;;;;8332317;28;20428;-45
2023/03/17 21:21:26;;;;;;;;;;;21.00;31.60;;;;;;8332283;28;19917;-46
2023/03/17 21:25:26;;;;;;;;;;;21.00;31.60;;;;;;8332244;28;20016;-47
2023/03/17 21:29:27;;;;;;;;;;;21.00;31.60;;;;;;8331665;28;19952;-45
2023/03/17 21:33:28;;;;;;;;;;;21.00;31.60;;;;;;8330436;28;19932;-45
2023/03/17 21:37:28;;;;;;;;;;;21.00;31.60;;;;;;8331860;28;19918;-45
2023/03/17 21:41:32;;;;;;;;;;;21.00;31.60;;;;;;8332030;28;20007;-45
2023/03/17 21:45:32;;;;;;;;;;;21.10;31.60;;;;;;8331551;28;19932;-46
2023/03/17 21:49:33;;;;;;;;;;;21.10;31.60;;;;;;8331193;28;20259;-46
2023/03/17 21:53:33;;;;;;;;;;;21.00;31.60;;;;;;8331208;28;19925;-47
2023/03/17 21:57:34;;;;;;;;;;;21.00;31.60;;;;;;8331456;28;19959;-45
2023/03/17 22:01:34;;;;;;;;;;;21.00;31.60;;;;;;8330645;28;19921;-45
2023/03/17 22:05:35;;;;;;;;;;;21.00;31.60;;;;;;8331260;28;20371;-45
2023/03/17 22:09:36;;;;;;;;;;;21.00;31.60;;;;;;8331132;28;20282;-45
2023/03/17 22:13:36;;;;;;;;;;;21.00;31.60;;;;;;8330288;28;19925;-44
2023/03/17 22:17:38;;;;;;;;;;;21.00;31.60;;;;;;8331129;28;19957;-46
2023/03/17 22:21:38;;;;;;;;;;;20.90;31.60;;;;;;8330472;28;20309;-45
2023/03/17 22:25:39;;;;;;;;;;;20.90;31.60;;;;;;8330107;28;19917;-45
2023/03/17 22:29:39;;;;;;;;;;;20.90;31.60;;;;;;8330635;28;19921;-45
2023/03/17 22:33:40;;;;;;;;;;;20.90;31.60;;;;;;8330411;28;19925;-45
2023/03/17 22:37:41;;;;;;;;;;;20.90;31.70;;;;;;8330140;28;19920;-45
2023/03/17 22:41:42;;;;;;;;;;;20.90;31.60;;;;;;8330480;28;19957;-45
2023/03/17 22:45:42;;;;;;;;;;;20.80;31.70;;;;;;8330044;28;19920;-45
2023/03/17 22:49:43;;;;;;;;;;;20.80;31.70;;;;;;8329587;28;19956;-46
2023/03/17 22:53:44;;;;;;;;;;;20.80;31.70;;;;;;8329806;28;19932;-45
2023/03/17 22:57:44;;;;;;;;;;;20.80;31.70;;;;;;8330143;28;19928;-45
2023/03/17 23:01:45;;;;;;;;;;;20.70;31.70;;;;;;8328752;28;20251;-46
2023/03/17 23:05:46;;;;;;;;;;;20.70;31.70;;;;;;8312961;28;19940;-45
2023/03/17 23:09:46;;;;;;;;;;;20.70;31.80;;;;;;8310027;28;19917;-45
2023/03/17 23:13:47;;;;;;;;;;;20.70;31.70;;;;;;8329192;28;20302;-44
2023/03/17 23:17:48;;;;;;;;;;;20.70;31.80;;;;;;8329978;28;20317;-45
2023/03/17 23:21:48;;;;;;;;;;;20.60;31.70;;;;;;8329506;28;19932;-44
2023/03/17 23:25:49;;;;;;;;;;;20.60;31.70;;;;;;8329018;28;19971;-44